Terminal Aerodrome Forecast
Issued by NWS

Home | Current Version | Previous Version | Text Only | Print | Product List | Glossary On
Versions: 1 2 3 4 5 6 7 8 9 10 11 12 13 14 15 16 17 18 19 20 21 22 23 24 25 26
000
FTUS41 KBOX 032340
TAFFMH
TAF
KFMH 032340Z 0400/0424 18010KT 3SM -SN BR OVC040
     FM040100 18011KT 1SM -SN BR OVC025
     FM040400 19013KT 1SM -RASN BR OVC008
     FM040500 19014KT 5SM -RA BR OVC008 WS020/20045KT
     FM041000 21015KT 6SM -RA BR OVC008
     FM041200 24014KT P6SM OVC008
     FM041500 24012KT P6SM OVC015
     FM042000 25008KT P6SM OVC015=

USA.gov is the U.S. government's official web portal to all federal, state and local government web resources and services.